createdAt,value
2022-10-04T00:01:58.390Z,101685.28
2022-10-04T00:04:44.474Z,101677.19
2022-10-04T00:07:13.611Z,101671.78
2022-10-04T00:09:47.832Z,101665.50
2022-10-04T00:12:38.139Z,101664.66
2022-10-04T00:15:25.794Z,101663.84
2022-10-04T00:18:21.479Z,101665.00
2022-10-04T00:20:51.048Z,101662.47
2022-10-04T00:23:23.348Z,101663.63
2022-10-04T00:25:51.091Z,101666.63
2022-10-04T00:28:20.812Z,101657.69
2022-10-04T00:31:09.531Z,101655.16
2022-10-04T00:33:38.627Z,101648.03
2022-10-04T00:36:23.791Z,101661.38
2022-10-04T00:39:08.486Z,101648.03
2022-10-04T00:41:54.350Z,101643.66
2022-10-04T00:44:38.985Z,101631.84
2022-10-04T00:47:21.446Z,101629.34
2022-10-04T00:49:51.591Z,101628.47
2022-10-04T00:52:26.375Z,101622.22
2022-10-04T00:54:57.969Z,101615.16
2022-10-04T00:57:29.755Z,101618.69
2022-10-04T00:59:59.570Z,101611.59
2022-10-04T01:02:29.828Z,101622.41
2022-10-04T01:05:10.636Z,101621.38
2022-10-04T01:07:46.482Z,101615.16
2022-10-04T01:10:25.413Z,101621.38
2022-10-04T01:13:04.488Z,101617.00
2022-10-04T01:15:56.638Z,101608.91
2022-10-04T01:18:22.923Z,101610.91
2022-10-04T01:21:03.578Z,101603.66
2022-10-04T01:23:45.712Z,101596.41
2022-10-04T01:26:30.329Z,101603.84
2022-10-04T01:28:58.936Z,101600.25
2022-10-04T01:31:29.811Z,101595.06
2022-10-04T01:33:56.829Z,101604.13
2022-10-04T01:36:23.656Z,101608.84
2022-10-04T01:38:50.820Z,101612.53
2022-10-04T01:41:25.263Z,101616.06
2022-10-04T01:43:58.326Z,101612.53
2022-10-04T01:46:33.426Z,101597.38
2022-10-04T01:49:11.807Z,101599.22
2022-10-04T01:51:49.912Z,101598.34
2022-10-04T01:54:20.446Z,101595.66
2022-10-04T01:56:55.874Z,101593.97
2022-10-04T01:59:27.996Z,101581.50
2022-10-04T02:02:05.704Z,101573.41
2022-10-04T02:04:35.574Z,101567.16
2022-10-04T02:07:04.203Z,101574.72
2022-10-04T02:09:34.075Z,101572.03
2022-10-04T02:12:01.535Z,101579.41
2022-10-04T02:14:33.143Z,101566.09
2022-10-04T02:17:03.119Z,101558.84
2022-10-04T02:19:39.543Z,101563.56
2022-10-04T02:22:09.174Z,101564.72
2022-10-04T02:24:41.103Z,101562.31
2022-10-04T02:27:07.566Z,101562.66
2022-10-04T02:29:34.323Z,101558.56
2022-10-04T02:32:21.299Z,101557.03
2022-10-04T02:34:47.948Z,101552.97
2022-10-04T02:37:15.268Z,101553.28
2022-10-04T02:39:49.990Z,101552.56
2022-10-04T02:42:40.918Z,101550.34
2022-10-04T02:45:43.072Z,101550.66
2022-10-04T02:48:26.506Z,101544.75
2022-10-04T02:50:55.824Z,101536.94
2022-10-04T02:53:34.753Z,101531.03
2022-10-04T02:56:02.619Z,101533.16
2022-10-04T02:58:32.472Z,101536.84
2022-10-04T03:01:00.640Z,101524.69
2022-10-04T03:03:37.503Z,101535.47
2022-10-04T03:06:15.575Z,101541.84
2022-10-04T03:08:53.063Z,101536.63
2022-10-04T03:11:24.795Z,101536.44
2022-10-04T03:13:55.109Z,101537.28
2022-10-04T03:16:22.577Z,101541.69
2022-10-04T03:18:51.442Z,101539.84
2022-10-04T03:21:20.844Z,101544.06
2022-10-04T03:23:50.790Z,101536.84
2022-10-04T03:26:36.454Z,101530.31
2022-10-04T03:29:09.544Z,101518.38
2022-10-04T03:31:42.816Z,101500.38
2022-10-04T03:34:23.842Z,101492.13
2022-10-04T03:36:56.043Z,101490.97
2022-10-04T03:39:33.529Z,101496.38
2022-10-04T03:42:10.358Z,101495.34
2022-10-04T03:44:37.607Z,101509.84
2022-10-04T03:47:13.042Z,101509.69
2022-10-04T03:49:42.159Z,101501.63
2022-10-04T03:52:20.033Z,101511.38
2022-10-04T03:54:47.662Z,101502.47
2022-10-04T03:57:14.150Z,101506.00
2022-10-04T03:59:40.694Z,101514.91
2022-10-04T04:02:36.293Z,101510.38
2022-10-04T04:05:12.835Z,101499.59
2022-10-04T04:07:45.777Z,101493.53
2022-10-04T04:10:22.678Z,101491.13
2022-10-04T04:12:58.040Z,101488.59
2022-10-04T04:15:29.651Z,101490.59
2022-10-04T04:17:59.792Z,101491.03
2022-10-04T04:20:31.540Z,101485.94
2022-10-04T04:23:02.007Z,101491.66
2022-10-04T04:25:32.206Z,101485.88
2022-10-04T04:28:12.153Z,101489.88
2022-10-04T04:30:43.953Z,101489.34
2022-10-04T04:33:22.974Z,101484.28
2022-10-04T04:35:55.246Z,101483.75
2022-10-04T04:38:24.446Z,101485.03
2022-10-04T04:40:55.609Z,101487.22
2022-10-04T04:43:26.730Z,101475.72
2022-10-04T04:46:08.877Z,101478.88
2022-10-04T04:48:45.077Z,101472.78
2022-10-04T04:51:19.496Z,101478.50
2022-10-04T04:53:47.733Z,101486.19
2022-10-04T04:56:19.284Z,101489.88
2022-10-04T04:58:48.436Z,101485.78
2022-10-04T05:01:25.584Z,101489.78
2022-10-04T05:04:05.506Z,101492.78
2022-10-04T05:06:34.214Z,101496.78
2022-10-04T05:09:00.912Z,101499.78
2022-10-04T05:11:31.643Z,101496.38
2022-10-04T05:14:03.158Z,101492.28
2022-10-04T05:16:52.788Z,101489.88
2022-10-04T05:19:28.456Z,101488.50
2022-10-04T05:21:57.657Z,101487.09
2022-10-04T05:24:28.222Z,101491.78
2022-10-04T05:26:58.737Z,101478.94
2022-10-04T05:29:28.275Z,101476.56
2022-10-04T05:31:56.137Z,101469.75
2022-10-04T05:34:29.124Z,101470.78
2022-10-04T05:36:58.481Z,101472.75
2022-10-04T05:39:33.231Z,101473.06
2022-10-04T05:42:23.269Z,101466.13
2022-10-04T05:44:54.695Z,101472.66
2022-10-04T05:47:27.669Z,101470.97
2022-10-04T05:49:59.995Z,101468.28
2022-10-04T05:52:39.954Z,101462.19
2022-10-04T05:55:12.141Z,101476.66
2022-10-04T05:57:44.519Z,101476.66
2022-10-04T06:00:20.891Z,101477.63
2022-10-04T06:02:51.105Z,101479.47
2022-10-04T06:05:28.910Z,101480.31
2022-10-04T06:08:00.801Z,101476.66
2022-10-04T06:10:42.190Z,101479.19
2022-10-04T06:13:26.015Z,101479.88
2022-10-04T06:16:12.677Z,101484.13
2022-10-04T06:18:46.818Z,101475.63
2022-10-04T06:21:24.402Z,101478.00
2022-10-04T06:23:59.471Z,101477.56
2022-10-04T06:26:33.591Z,101475.25
2022-10-04T06:29:10.507Z,101471.97
2022-10-04T06:31:58.638Z,101468.53
2022-10-04T06:34:33.723Z,101469.59
2022-10-04T06:37:33.120Z,101469.84
2022-10-04T06:40:21.348Z,101471.78
2022-10-04T06:43:16.499Z,101470.19
2022-10-04T06:45:51.351Z,101466.88
2022-10-04T06:48:23.631Z,101460.03
2022-10-04T06:50:56.859Z,101460.41
2022-10-04T06:53:46.574Z,101457.09
2022-10-04T06:56:26.352Z,101461.03
2022-10-04T06:59:31.693Z,101464.97
2022-10-04T07:02:12.324Z,101456.25
2022-10-04T07:05:07.942Z,101451.25
2022-10-04T07:07:38.852Z,101459.72
2022-10-04T07:10:17.190Z,101463.78
2022-10-04T07:13:09.477Z,101470.59
2022-10-04T07:15:59.514Z,101469.94
2022-10-04T07:18:45.241Z,101473.00
2022-10-04T07:21:16.534Z,101473.38
2022-10-04T07:23:45.143Z,101476.47
2022-10-04T07:26:39.088Z,101479.53
2022-10-04T07:29:28.265Z,101482.59
2022-10-04T07:32:32.588Z,101485.16
2022-10-04T07:35:14.082Z,101483.81
2022-10-04T07:38:03.391Z,101471.16
2022-10-04T07:40:35.942Z,101471.88
2022-10-04T07:43:26.876Z,101473.56
2022-10-04T07:46:03.503Z,101492.13
2022-10-04T07:48:30.001Z,101500.75
2022-10-04T07:51:02.685Z,101492.19
2022-10-04T07:53:46.894Z,101495.41
2022-10-04T07:56:21.065Z,101492.22
2022-10-04T07:59:04.305Z,101490.22
2022-10-04T08:01:38.462Z,101490.59
2022-10-04T08:04:04.850Z,101492.13
2022-10-04T08:06:37.816Z,101487.94
2022-10-04T08:09:04.083Z,101494.84
2022-10-04T08:11:44.424Z,101494.19
2022-10-04T08:14:36.149Z,101491.72
2022-10-04T08:17:15.191Z,101484.97
2022-10-04T08:19:54.333Z,101486.16
2022-10-04T08:22:30.224Z,101486.53
2022-10-04T08:25:05.810Z,101479.28
2022-10-04T08:28:07.596Z,101483.22
2022-10-04T08:30:52.627Z,101478.03
2022-10-04T08:34:01.157Z,101473.66
2022-10-04T08:36:52.565Z,101481.44
2022-10-04T08:39:52.574Z,101478.59
2022-10-04T08:42:34.045Z,101471.19
2022-10-04T08:45:21.031Z,101479.47
2022-10-04T08:48:11.517Z,101472.72
2022-10-04T08:51:01.098Z,101461.22
2022-10-04T08:53:30.435Z,101450.75
2022-10-04T08:56:31.479Z,101449.00
2022-10-04T08:59:22.383Z,101445.28
2022-10-04T09:02:25.111Z,101437.09
2022-10-04T09:05:14.540Z,101437.03
2022-10-04T09:08:04.248Z,101440.69
2022-10-04T09:10:57.246Z,101438.91
2022-10-04T09:13:38.059Z,101437.50
2022-10-04T09:16:17.200Z,101436.91
2022-10-04T09:19:06.171Z,101437.53
2022-10-04T09:22:01.642Z,101435.63
2022-10-04T09:24:53.487Z,101423.88
2022-10-04T09:27:55.684Z,101419.59
2022-10-04T09:30:33.053Z,101417.16
2022-10-04T09:33:14.219Z,101416.44
2022-10-04T09:35:54.503Z,101406.03
2022-10-04T09:38:44.617Z,101401.78
2022-10-04T09:41:26.818Z,101409.16
2022-10-04T09:44:30.964Z,101404.88
2022-10-04T09:47:14.057Z,101400.56
2022-10-04T09:49:59.302Z,101408.00
2022-10-04T09:52:39.883Z,101410.97
2022-10-04T09:55:23.488Z,101395.63
2022-10-04T09:58:22.339Z,101407.44
2022-10-04T10:00:56.764Z,101402.94
2022-10-04T10:03:41.848Z,101401.38
2022-10-04T10:06:48.624Z,101400.44
2022-10-04T10:09:51.799Z,101400.50
2022-10-04T10:12:42.623Z,101401.47
2022-10-04T10:15:24.895Z,101393.59
2022-10-04T10:17:57.942Z,101393.66
2022-10-04T10:20:48.107Z,101392.91
2022-10-04T10:24:01.932Z,101389.41
2022-10-04T10:26:52.594Z,101389.50
2022-10-04T10:29:40.777Z,101388.56
2022-10-04T10:32:19.045Z,101382.34
2022-10-04T10:35:19.521Z,101377.16
2022-10-04T10:37:45.785Z,101376.59
2022-10-04T10:40:40.954Z,101382.09
2022-10-04T10:43:53.042Z,101384.66
2022-10-04T10:46:42.739Z,101381.84
2022-10-04T10:49:21.988Z,101384.00
2022-10-04T10:52:25.423Z,101380.28
2022-10-04T10:55:13.187Z,101378.66
2022-10-04T10:57:58.562Z,101381.47
2022-10-04T11:00:39.948Z,101385.44
2022-10-04T11:03:21.818Z,101385.91
2022-10-04T11:06:01.938Z,101380.50
2022-10-04T11:09:06.441Z,101375.75
2022-10-04T11:12:05.568Z,101372.69
2022-10-04T11:14:47.108Z,101372.75
2022-10-04T11:17:33.459Z,101361.06
2022-10-04T11:20:05.193Z,101352.91
2022-10-04T11:22:57.447Z,101354.84
2022-10-04T11:25:34.832Z,101344.22
2022-10-04T11:28:39.098Z,101347.38
2022-10-04T11:31:27.288Z,101335.44
2022-10-04T11:34:16.376Z,101329.81
2022-10-04T11:37:13.779Z,101321.22
2022-10-04T11:39:42.533Z,101318.72
2022-10-04T11:42:28.651Z,101318.97
2022-10-04T11:45:19.645Z,101320.25
2022-10-04T11:47:51.634Z,101309.59
2022-10-04T11:50:29.577Z,101312.31
2022-10-04T11:53:27.177Z,101317.78
2022-10-04T11:56:29.633Z,101314.06
2022-10-04T11:59:08.499Z,101316.56
2022-10-04T12:02:16.879Z,101298.34
2022-10-04T12:04:54.079Z,101306.53
2022-10-04T12:07:55.118Z,101306.75
2022-10-04T12:10:29.058Z,101301.94
2022-10-04T12:13:04.600Z,101304.03
2022-10-04T12:15:41.641Z,101295.66
2022-10-04T12:18:33.039Z,101292.75
2022-10-04T12:21:28.961Z,101295.88
2022-10-04T12:24:23.189Z,101295.47
2022-10-04T12:27:02.743Z,101288.56
2022-10-04T12:30:00.594Z,101282.25
2022-10-04T12:32:45.146Z,101275.94
2022-10-04T12:35:14.470Z,101268.22
2022-10-04T12:38:19.833Z,101264.81
2022-10-04T12:41:17.771Z,101261.28
2022-10-04T12:44:03.358Z,101261.47
2022-10-04T12:47:00.928Z,101256.22
2022-10-04T12:50:09.594Z,101253.91
2022-10-04T12:52:54.327Z,101240.66
2022-10-04T12:55:43.500Z,101237.53
2022-10-04T12:58:30.371Z,101238.94
2022-10-04T13:01:11.085Z,101232.22
2022-10-04T13:04:29.132Z,101226.38
2022-10-04T13:07:14.071Z,101227.59
2022-10-04T13:10:26.001Z,101227.16
2022-10-04T13:13:16.980Z,101220.22
2022-10-04T13:19:21.100Z,101223.34
2022-10-04T13:22:06.450Z,101217.69
2022-10-04T13:24:56.094Z,101208.44
2022-10-04T13:27:38.878Z,101204.88
2022-10-04T13:30:29.486Z,101212.91
2022-10-04T13:33:09.915Z,101203.66
2022-10-04T13:35:59.931Z,101205.09
2022-10-04T13:39:07.223Z,101201.09
2022-10-04T13:41:42.705Z,101195.38
2022-10-04T13:44:33.354Z,101187.81
2022-10-04T13:47:20.967Z,101179.63
2022-10-04T13:50:17.471Z,101186.38
2022-10-04T13:53:14.874Z,101182.56
2022-10-04T13:56:18.609Z,101175.66
2022-10-04T13:58:44.899Z,101175.66
2022-10-04T14:01:29.935Z,101171.25
2022-10-04T14:04:14.708Z,101173.56
2022-10-04T14:07:13.608Z,101180.47
2022-10-04T14:10:13.202Z,101172.91
2022-10-04T14:12:59.446Z,101179.81
2022-10-04T14:15:28.472Z,101176.03
2022-10-04T14:18:35.855Z,101186.50
2022-10-04T14:21:15.296Z,101179.31
2022-10-04T14:24:15.088Z,101178.91
2022-10-04T14:27:03.117Z,101179.13
2022-10-04T14:29:52.668Z,101171.13
2022-10-04T14:32:39.472Z,101164.00
2022-10-04T14:35:30.046Z,101159.38
2022-10-04T14:38:06.460Z,101167.56
2022-10-04T14:40:44.910Z,101168.63
2022-10-04T14:43:49.003Z,101158.78
2022-10-04T14:46:33.719Z,101146.59
2022-10-04T14:49:15.712Z,101139.69
2022-10-04T14:51:51.212Z,101142.03
2022-10-04T14:54:26.861Z,101137.63
2022-10-04T14:57:03.443Z,101134.06
2022-10-04T14:59:59.061Z,101135.13
2022-10-04T15:02:31.729Z,101132.59
2022-10-04T15:05:29.904Z,101140.16
2022-10-04T15:08:15.731Z,101138.13
2022-10-04T15:10:51.991Z,101132.22
2022-10-04T15:13:39.671Z,101133.50
2022-10-04T15:16:27.872Z,101131.41
2022-10-04T15:19:00.116Z,101140.84
2022-10-04T15:21:45.390Z,101147.81
2022-10-04T15:24:17.883Z,101142.34
2022-10-04T15:27:14.773Z,101136.28
2022-10-04T15:30:00.041Z,101144.88
2022-10-04T15:32:35.875Z,101135.25
2022-10-04T15:35:11.585Z,101138.56
2022-10-04T15:37:44.274Z,101135.25
2022-10-04T15:40:58.035Z,101137.09
2022-10-04T15:43:34.234Z,101140.06
2022-10-04T15:46:24.105Z,101140.28
2022-10-04T15:49:15.602Z,101144.28
2022-10-04T15:52:07.268Z,101145.53
2022-10-04T15:55:03.279Z,101140.72
2022-10-04T15:57:35.883Z,101134.69
2022-10-04T16:00:10.412Z,101134.25
2022-10-04T16:03:27.517Z,101143.94
2022-10-04T16:06:21.552Z,101141.66
2022-10-04T16:09:06.562Z,101138.72
2022-10-04T16:12:02.605Z,101142.91
2022-10-04T16:15:01.235Z,101138.09
2022-10-04T16:18:00.138Z,101135.41
2022-10-04T16:20:48.240Z,101128.31
2022-10-04T16:23:34.403Z,101138.38
2022-10-04T16:26:16.000Z,101129.59
2022-10-04T16:29:27.986Z,101135.44
2022-10-04T16:32:04.046Z,101135.69
2022-10-04T16:34:37.220Z,101127.09
2022-10-04T16:37:09.555Z,101140.94
2022-10-04T16:39:56.663Z,101135.06
2022-10-04T16:42:29.414Z,101141.97
2022-10-04T16:45:19.490Z,101138.81
2022-10-04T16:47:48.662Z,101139.25
2022-10-04T16:51:04.334Z,101136.28
2022-10-04T16:53:36.667Z,101139.59
2022-10-04T16:56:23.007Z,101132.03
2022-10-04T16:59:04.267Z,101123.63
2022-10-04T17:01:38.371Z,101131.56
2022-10-04T17:04:04.823Z,101126.66
2022-10-04T17:06:51.539Z,101133.34
2022-10-04T17:09:43.286Z,101124.91
2022-10-04T17:12:35.497Z,101120.06
2022-10-04T17:15:14.031Z,101121.44
2022-10-04T17:18:12.427Z,101136.41
2022-10-04T17:20:42.973Z,101129.66
2022-10-04T17:23:51.371Z,101138.97
2022-10-04T17:26:40.802Z,101138.50
2022-10-04T17:29:40.967Z,101147.66
2022-10-04T17:32:16.390Z,101146.94
2022-10-04T17:35:09.803Z,101156.69
2022-10-04T17:38:11.834Z,101156.66
2022-10-04T17:41:19.592Z,101147.59
2022-10-04T17:43:55.998Z,101149.41
2022-10-04T17:46:40.929Z,101138.47
2022-10-04T17:49:41.788Z,101151.97
2022-10-04T17:52:41.360Z,101146.66
2022-10-04T17:55:18.213Z,101145.75
2022-10-04T17:58:08.064Z,101146.53
2022-10-04T18:01:15.242Z,101160.22
2022-10-04T18:03:47.221Z,101159.09
2022-10-04T18:06:25.397Z,101163.78
2022-10-04T18:09:02.969Z,101160.78
2022-10-04T18:11:47.070Z,101158.19
2022-10-04T18:14:42.477Z,101164.38
2022-10-04T18:17:23.010Z,101175.13
2022-10-04T18:20:17.423Z,101174.38
2022-10-04T18:22:49.890Z,101182.63
2022-10-04T18:25:26.739Z,101184.34
2022-10-04T18:28:19.848Z,101176.31
2022-10-04T18:30:46.144Z,101173.69
2022-10-04T18:33:16.422Z,101164.44
2022-10-04T18:36:14.692Z,101157.06
2022-10-04T18:38:43.579Z,101154.25
2022-10-04T18:41:16.149Z,101142.97
2022-10-04T18:43:51.830Z,101141.84
2022-10-04T18:46:22.648Z,101150.28
2022-10-04T18:49:08.630Z,101151.88
2022-10-04T18:51:51.084Z,101172.03
2022-10-04T18:54:51.755Z,101182.56
2022-10-04T18:57:56.351Z,101184.13
2022-10-04T19:00:42.367Z,101190.28
2022-10-04T19:03:37.160Z,101193.53
2022-10-04T19:06:21.006Z,101186.16
2022-10-04T19:08:59.429Z,101188.34
2022-10-04T19:11:38.338Z,101189.09
2022-10-04T19:14:25.488Z,101190.66
2022-10-04T19:17:01.626Z,101191.38
2022-10-04T19:19:46.107Z,101189.16
2022-10-04T19:22:29.390Z,101179.91
2022-10-04T19:25:17.750Z,101167.94
2022-10-04T19:28:00.727Z,101165.78
2022-10-04T19:30:54.034Z,101169.00
2022-10-04T19:33:35.962Z,101162.28
2022-10-04T19:36:11.796Z,101162.81
2022-10-04T19:38:52.371Z,101164.16
2022-10-04T19:41:56.385Z,101165.56
2022-10-04T19:44:36.775Z,101164.22
2022-10-04T19:47:24.983Z,101166.44
2022-10-04T19:50:06.587Z,101167.78
2022-10-04T19:52:46.668Z,101174.59
2022-10-04T19:55:43.731Z,101175.94
2022-10-04T19:58:21.387Z,101180.19
2022-10-04T20:00:49.363Z,101186.94
2022-10-04T20:03:16.447Z,101187.31
2022-10-04T20:05:48.643Z,101182.59
2022-10-04T20:08:17.137Z,101183.13
2022-10-04T20:10:43.791Z,101186.34
2022-10-04T20:13:21.404Z,101176.06
2022-10-04T20:15:53.203Z,101173.88
2022-10-04T20:18:31.733Z,101173.41
2022-10-04T20:20:59.974Z,101167.66
2022-10-04T20:23:41.599Z,101166.16
2022-10-04T20:26:10.022Z,101156.72
2022-10-04T20:28:40.562Z,101147.94
2022-10-04T20:31:08.839Z,101145.56
2022-10-04T20:33:36.904Z,101143.88
2022-10-04T20:36:09.218Z,101144.88
2022-10-04T20:38:59.305Z,101139.47
2022-10-04T20:41:28.461Z,101142.16
2022-10-04T20:43:56.842Z,101141.34
2022-10-04T20:46:25.804Z,101136.13
2022-10-04T20:48:54.261Z,101136.13
2022-10-04T20:51:22.646Z,101130.03
2022-10-04T20:53:52.373Z,101124.66
2022-10-04T20:56:33.176Z,101120.91
2022-10-04T20:59:01.714Z,101133.75
2022-10-04T21:01:36.963Z,101130.22
2022-10-04T21:04:29.973Z,101132.91
2022-10-04T21:07:02.246Z,101132.06
2022-10-04T21:09:31.019Z,101126.19
2022-10-04T21:11:58.722Z,101135.13
2022-10-04T21:14:27.819Z,101140.69
2022-10-04T21:17:01.464Z,101139.00
2022-10-04T21:19:42.996Z,101140.03
2022-10-04T21:22:29.571Z,101136.47
2022-10-04T21:24:57.546Z,101133.13
2022-10-04T21:27:32.543Z,101138.50
2022-10-04T21:30:00.790Z,101138.69
2022-10-04T21:32:32.338Z,101132.59
2022-10-04T21:34:58.686Z,101131.75
2022-10-04T21:37:25.081Z,101123.81
2022-10-04T21:39:51.471Z,101121.31
2022-10-04T21:42:17.973Z,101115.22
2022-10-04T21:44:44.543Z,101119.97
2022-10-04T21:47:11.038Z,101121.13
2022-10-04T21:49:37.398Z,101130.25
2022-10-04T21:52:04.180Z,101135.81
2022-10-04T21:54:30.618Z,101122.50
2022-10-04T21:56:57.035Z,101134.28
2022-10-04T21:59:23.811Z,101137.19
2022-10-04T22:01:50.321Z,101140.88
2022-10-04T22:04:16.769Z,101144.59
2022-10-04T22:06:44.039Z,101149.31
2022-10-04T22:09:11.012Z,101135.34
2022-10-04T22:11:37.639Z,101143.59
2022-10-04T22:14:04.348Z,101139.56
2022-10-04T22:16:30.864Z,101137.84
2022-10-04T22:18:57.254Z,101137.34
2022-10-04T22:21:23.627Z,101137.50
2022-10-04T22:23:49.983Z,101127.06
2022-10-04T22:26:19.342Z,101126.41
2022-10-04T22:28:54.846Z,101134.50
2022-10-04T22:31:25.863Z,101128.44
2022-10-04T22:33:53.515Z,101136.88
2022-10-04T22:36:39.137Z,101133.31
2022-10-04T22:39:08.563Z,101127.06
2022-10-04T22:41:40.930Z,101130.78
2022-10-04T22:44:23.351Z,101133.47
2022-10-04T22:46:52.814Z,101141.56
2022-10-04T22:49:33.980Z,101143.25
2022-10-04T22:52:03.450Z,101138.88
2022-10-04T22:54:34.821Z,101129.75
2022-10-04T22:57:01.195Z,101136.88
2022-10-04T22:59:35.817Z,101134.16
2022-10-04T23:02:16.188Z,101133.16
2022-10-04T23:05:16.667Z,101134.81
2022-10-04T23:07:44.436Z,101124.91
2022-10-04T23:10:12.723Z,101126.72
2022-10-04T23:12:40.672Z,101124.91
2022-10-04T23:15:07.897Z,101125.72
2022-10-04T23:17:37.160Z,101125.53
2022-10-04T23:20:09.698Z,101129.13
2022-10-04T23:22:36.058Z,101127.41
2022-10-04T23:25:02.460Z,101123.72
2022-10-04T23:27:29.204Z,101117.47
2022-10-04T23:30:02.767Z,101123.72
2022-10-04T23:32:31.739Z,101128.94
2022-10-04T23:35:00.512Z,101125.41
2022-10-04T23:37:30.868Z,101127.91
2022-10-04T23:39:57.253Z,101117.13
2022-10-04T23:42:31.765Z,101120.50
2022-10-04T23:44:59.907Z,101112.59
2022-10-04T23:47:37.143Z,101114.94
2022-10-04T23:50:27.594Z,101115.09
2022-10-04T23:52:58.110Z,101117.13
2022-10-04T23:55:28.998Z,101116.13
2022-10-04T23:57:55.992Z,101107.53
